.
WxDataArchive / Data Records for 2008-11-01
2008-10-31 November 2008 2008-11-02

Data Records for Saturday, 01 November 2008

Time	Temp	Chill	HIndex	Humid	Dewpt	 Wind 	HiWind	WindDir	Rain 	Barom 
-----	----	-----	------	-----	-----	------	------	-------	-----	----- 
00:00	56.3	56.3	56.3	64	44.3	0	2	248	0.00	30.262 
00:05	56.2	56.2	56.2	64	44.2	0	1	248	0.00	30.262 
00:10	56.0	56.0	56.0	64	44.0	0	2	248	0.00	30.262 
00:15	55.9	55.9	55.9	65	44.3	0	1	248	0.00	30.261 
00:20	55.7	55.7	55.7	65	44.1	0	2	248	0.00	30.258 
00:25	55.7	55.7	55.7	65	44.1	0	2	248	0.00	30.256 
00:30	55.4	55.4	55.4	65	43.8	0	1	248	0.00	30.256 
00:35	55.3	55.3	55.3	65	43.7	0	1	248	0.00	30.256 
00:40	55.1	55.1	55.1	66	43.9	0	1	248	0.00	30.255 
00:45	55.0	55.0	55.0	66	43.9	0	1	248	0.00	30.254 
00:50	54.8	54.8	54.8	66	43.7	0	1	248	0.00	30.254 
00:55	54.7	54.7	54.7	67	44.0	0	1	248	0.00	30.253 
01:00	54.5	54.5	54.5	67	43.8	0	1	248	0.00	30.253 
01:05	54.2	54.2	54.2	67	43.5	0	1	248	0.00	30.253 
01:10	54.2	54.2	54.2	68	43.9	0	1	248	0.00	30.253 
01:15	54.1	54.1	54.1	68	43.8	0	1	248	0.00	30.252 
01:20	53.9	53.9	53.9	68	43.6	0	0	---	0.00	30.252 
01:25	53.8	53.8	53.8	68	43.5	0	1	248	0.00	30.252 
01:30	53.6	53.6	53.6	69	43.7	0	1	248	0.00	30.252 
01:35	53.5	53.5	53.5	69	43.6	0	1	248	0.00	30.252 
01:40	53.3	53.3	53.3	69	43.4	0	0	---	0.00	30.250 
01:45	53.2	53.2	53.2	69	43.3	0	1	248	0.00	30.254 
01:50	53.2	53.2	53.2	70	43.7	0	1	248	0.00	30.253 
01:55	53.1	53.1	53.1	70	43.6	0	1	248	0.00	30.254 
02:00	53.1	53.1	53.1	70	43.6	0	1	248	0.00	30.254 
02:05	52.9	52.9	52.9	70	43.4	0	1	248	0.00	30.252 
02:10	52.9	52.9	52.9	70	43.4	0	1	248	0.00	30.253 
02:15	52.9	52.9	52.9	70	43.4	0	0	---	0.00	30.253 
02:20	52.8	52.8	52.8	70	43.3	0	0	---	0.00	30.253 
02:25	52.6	52.6	52.6	70	43.1	0	0	---	0.00	30.253 
02:30	52.5	52.5	52.5	71	43.4	0	0	---	0.00	30.253 
02:35	52.2	52.2	52.2	71	43.1	0	0	---	0.00	30.255 
02:40	51.7	51.7	51.7	72	43.0	0	0	---	0.00	30.255 
02:45	51.3	51.3	51.3	73	42.9	0	0	---	0.00	30.256 
02:50	50.7	50.7	50.7	74	42.7	0	0	---	0.00	30.256 
02:55	50.2	50.2	50.2	75	42.6	0	0	---	0.00	30.257 
03:00	49.8	49.8	49.8	76	42.5	0	0	---	0.00	30.257 
03:05	49.4	49.4	49.4	77	42.5	0	0	---	0.00	30.256 
03:10	48.9	48.9	48.9	78	42.3	0	0	---	0.00	30.258 
03:15	48.5	48.5	48.5	79	42.3	0	0	---	0.00	30.258 
03:20	48.0	48.0	48.0	80	42.1	0	0	---	0.00	30.257 
03:25	47.7	47.7	47.7	81	42.2	0	0	---	0.00	30.258 
03:30	47.3	47.3	47.3	81	41.8	0	0	---	0.00	30.259 
03:35	47.0	47.0	47.0	82	41.8	0	0	---	0.00	30.259 
03:40	46.7	46.7	46.7	83	41.8	0	0	---	0.00	30.259 
03:45	46.2	46.2	46.2	84	41.6	0	0	---	0.00	30.259 
03:50	46.0	46.0	46.0	84	41.4	0	0	---	0.00	30.259 
03:55	45.7	45.7	45.7	85	41.5	0	0	---	0.00	30.260 
04:00	45.4	45.4	45.4	85	41.2	0	0	---	0.00	30.260 
04:05	45.2	45.2	45.2	86	41.3	0	0	---	0.00	30.261 
04:10	44.9	44.9	44.9	87	41.3	0	0	---	0.00	30.262 
04:15	44.6	44.6	44.6	87	41.0	0	0	---	0.00	30.262 
04:20	44.5	44.5	44.5	88	41.2	0	0	---	0.00	30.262 
04:25	44.2	44.2	44.2	88	40.9	0	0	---	0.00	30.265 
04:30	44.1	44.1	44.1	88	40.8	0	0	---	0.00	30.264 
04:35	43.9	43.9	43.9	88	40.6	0	0	---	0.00	30.264 
04:40	43.8	43.8	43.8	89	40.8	0	0	---	0.00	30.264 
04:45	43.6	43.6	43.6	89	40.6	0	0	---	0.00	30.264 
04:50	43.5	43.5	43.5	89	40.5	0	0	---	0.00	30.264 
04:55	43.3	43.3	43.3	90	40.6	0	0	---	0.00	30.264 
05:00	43.3	43.3	43.3	90	40.6	0	0	---	0.00	30.264 
05:05	43.2	43.2	43.2	90	40.5	0	0	---	0.00	30.267 
05:10	43.1	43.1	43.1	90	40.4	0	0	---	0.00	30.268 
05:15	42.9	42.9	42.9	90	40.2	0	0	---	0.00	30.268 
05:20	42.9	42.9	42.9	91	40.5	0	0	---	0.00	30.270 
05:25	42.8	42.8	42.8	91	40.4	0	0	---	0.00	30.272 
05:30	42.6	42.6	42.6	91	40.2	0	0	---	0.00	30.275 
05:35	42.6	42.6	42.6	91	40.2	0	0	---	0.00	30.276 
05:40	42.5	42.5	42.5	92	40.3	0	0	---	0.00	30.278 
05:45	42.3	42.3	42.3	92	40.1	0	0	---	0.00	30.281 
05:50	42.2	42.2	42.2	92	40.0	0	0	---	0.00	30.280 
05:55	42.2	42.2	42.2	92	40.0	0	0	---	0.00	30.279 
06:00	42.2	42.2	42.2	92	40.0	0	0	---	0.00	30.278 
06:05	42.3	42.3	42.3	92	40.1	0	0	---	0.00	30.282 
06:10	42.3	42.3	42.3	92	40.1	0	0	---	0.00	30.283 
06:15	42.3	42.3	42.3	93	40.4	0	0	---	0.00	30.283 
06:20	42.5	42.5	42.5	93	40.6	0	0	---	0.00	30.280 
06:25	42.6	42.6	42.6	93	40.7	0	0	---	0.00	30.277 
06:30	42.6	42.6	42.6	93	40.7	0	0	---	0.00	30.278 
06:35	42.6	42.6	42.6	93	40.7	0	0	---	0.00	30.279 
06:40	42.6	42.6	42.6	93	40.7	0	0	---	0.00	30.279 
06:45	42.6	42.6	42.6	93	40.7	0	0	---	0.00	30.278 
06:50	42.5	42.5	42.5	93	40.6	0	0	---	0.00	30.278 
06:55	42.5	42.5	42.5	93	40.6	0	0	---	0.00	30.279 
07:00	42.5	42.5	42.5	93	40.6	0	0	---	0.00	30.279 
07:05	42.3	42.3	42.3	93	40.4	0	0	---	0.00	30.281 
07:10	42.5	42.5	42.5	93	40.6	0	0	---	0.00	30.282 
07:15	42.6	42.6	42.6	93	40.7	0	0	---	0.00	30.277 
07:20	42.6	42.6	42.6	94	41.0	0	0	---	0.00	30.278 
07:25	42.6	42.6	42.6	94	41.0	0	0	---	0.00	30.279 
07:30	42.6	42.6	42.6	94	41.0	0	0	---	0.00	30.279 
07:35	42.6	42.6	42.6	94	41.0	0	0	---	0.00	30.279 
07:40	42.6	42.6	42.6	94	41.0	0	0	---	0.00	30.283 
07:45	42.6	42.6	42.6	94	41.0	0	0	---	0.00	30.283 
07:50	42.6	42.6	42.6	94	41.0	0	0	---	0.00	30.284 
07:55	42.8	42.8	42.8	94	41.2	0	0	---	0.00	30.285 
08:00	43.1	43.1	43.1	94	41.5	0	0	---	0.00	30.286 
08:05	43.3	43.3	43.3	94	41.7	0	0	---	0.00	30.289 
08:10	43.9	43.9	43.9	94	42.3	0	0	---	0.00	30.294 
08:15	44.3	44.3	44.3	94	42.7	0	0	---	0.00	30.295 
08:20	44.9	44.9	44.9	95	43.6	0	0	---	0.00	30.293 
08:25	45.5	45.5	45.5	95	44.2	0	0	---	0.00	30.292 
08:30	46.2	46.2	46.2	95	44.8	0	0	---	0.00	30.289 
08:35	46.8	46.8	46.8	94	45.2	0	0	---	0.00	30.287 
08:40	47.4	47.4	47.4	93	45.5	0	1	248	0.00	30.287 
08:45	48.0	48.0	48.0	91	45.5	0	2	248	0.00	30.284 
08:50	48.6	48.6	48.6	88	45.2	0	1	248	0.00	30.285 
08:55	49.1	49.1	49.1	87	45.4	0	1	248	0.00	30.288 
09:00	49.5	49.5	49.5	86	45.5	0	1	248	0.00	30.285 
09:05	49.9	49.9	49.9	85	45.6	0	1	248	0.00	30.286 
09:10	50.5	50.5	50.5	82	45.2	0	1	248	0.00	30.285 
09:15	51.3	51.3	51.3	80	45.3	0	1	248	0.00	30.282 
09:20	51.7	51.7	51.7	78	45.1	0	1	248	0.00	30.282 
09:25	52.3	52.3	52.3	77	45.3	0	2	248	0.00	30.282 
09:30	52.9	52.9	52.9	76	45.5	0	3	248	0.00	30.283 
09:35	53.2	53.2	53.2	77	46.2	0	1	248	0.00	30.283 
09:40	53.8	53.8	53.8	77	46.8	1	2	158	0.00	30.285 
09:45	53.9	53.9	53.9	77	46.9	1	4	90	0.00	30.285 
09:50	53.8	53.8	53.8	76	46.4	2	5	90	0.00	30.286 
09:55	53.8	53.8	53.8	78	47.1	1	3	90	0.00	30.284 
10:00	53.8	53.8	53.8	78	47.1	1	7	112	0.00	30.288 
10:05	53.9	53.9	53.9	78	47.2	0	2	112	0.00	30.287 
10:10	54.2	54.2	54.2	77	47.1	2	5	90	0.00	30.291 
10:15	54.4	54.4	54.4	77	47.3	2	6	112	0.00	30.293 
10:20	54.7	54.7	54.7	78	48.0	1	4	90	0.00	30.293 
10:25	55.1	55.1	55.1	76	47.7	1	4	90	0.00	30.293 
10:30	55.3	55.3	55.3	77	48.2	1	2	90	0.00	30.294 
10:35	55.6	55.6	55.6	77	48.5	0	4	90	0.00	30.291 
10:40	55.7	55.7	55.7	75	47.9	2	5	112	0.00	30.291 
10:45	55.7	55.7	55.7	76	48.3	1	3	90	0.00	30.292 
10:50	55.9	55.9	55.9	76	48.4	1	4	90	0.00	30.291 
10:55	56.0	56.0	56.0	76	48.5	1	3	112	0.00	30.291 
11:00	56.0	56.0	56.0	75	48.2	1	4	112	0.00	30.291 
11:05	56.3	56.3	56.3	76	48.8	0	2	90	0.00	30.293 
11:10	56.3	56.3	56.3	75	48.5	1	2	90	0.00	30.294 
11:15	56.5	56.5	56.5	75	48.7	1	3	90	0.00	30.294 
11:20	56.7	56.7	56.7	74	48.5	1	2	90	0.00	30.294 
11:25	56.7	56.7	56.7	73	48.1	2	4	112	0.00	30.295 
11:30	56.9	56.9	56.9	73	48.3	1	4	90	0.00	30.293 
11:35	57.0	57.0	57.0	74	48.8	1	2	90	0.00	30.292 
11:40	57.2	57.2	57.2	73	48.6	0	4	90	0.00	30.291 
11:45	57.5	57.5	57.5	73	48.9	1	3	90	0.00	30.289 
11:50	57.6	57.6	57.6	72	48.6	1	3	90	0.00	30.287 
11:55	57.8	57.8	57.8	71	48.5	1	4	90	0.00	30.288 
12:00	57.8	57.8	57.8	72	48.8	0	2	90	0.00	30.287 
12:05	58.1	58.1	58.1	72	49.1	0	2	90	0.00	30.288 
12:10	58.3	58.3	58.3	70	48.6	0	2	90	0.00	30.286 
12:15	58.6	58.6	58.6	70	48.8	0	1	90	0.00	30.283 
12:20	58.6	58.6	58.6	68	48.1	0	2	90	0.00	30.280 
12:25	58.7	58.7	58.7	69	48.6	0	3	90	0.00	30.279 
12:30	58.9	58.9	58.9	68	48.4	0	2	90	0.00	30.279 
12:35	59.0	59.0	59.0	69	48.8	0	2	90	0.00	30.278 
12:40	59.3	59.3	59.3	69	49.1	0	2	90	0.00	30.277 
12:45	59.5	59.5	59.5	66	48.1	0	2	90	0.00	30.276 
12:50	59.6	59.6	59.6	67	48.6	0	2	90	0.00	30.275 
12:55	59.6	59.6	59.6	66	48.2	2	5	112	0.00	30.274 
13:00	59.6	59.6	59.6	67	48.6	1	3	112	0.00	30.272 
13:05	59.6	59.6	59.6	66	48.2	1	3	112	0.00	30.272 
13:10	59.6	59.6	59.6	66	48.2	1	3	112	0.00	30.272 
13:15	59.8	59.8	59.8	67	48.8	0	2	112	0.00	30.269 
13:20	60.1	60.1	60.1	65	48.3	1	4	112	0.00	30.265 
13:25	60.2	60.2	60.2	66	48.8	0	3	112	0.00	30.263 
13:30	60.2	60.2	60.2	65	48.4	1	3	112	0.00	30.263 
13:35	60.2	60.2	60.2	65	48.4	1	3	112	0.00	30.263 
13:40	60.2	60.2	60.2	65	48.4	1	3	112	0.00	30.262 
13:45	60.4	60.4	60.4	65	48.6	0	2	112	0.00	30.261 
13:50	60.9	60.9	60.9	65	49.1	0	1	112	0.00	30.259 
13:55	61.0	61.0	61.0	65	49.1	0	1	112	0.00	30.256 
14:00	61.2	61.2	61.2	63	48.5	0	2	112	0.00	30.253 
14:05	61.3	61.3	61.3	64	49.0	0	3	112	0.00	30.256 
14:10	61.3	61.3	61.3	64	49.0	1	5	112	0.00	30.257 
14:15	61.3	61.3	61.3	65	49.4	1	3	112	0.00	30.255 
14:20	61.3	61.3	61.3	65	49.4	0	2	112	0.00	30.253 
14:25	61.3	61.3	61.3	65	49.4	1	5	112	0.00	30.252 
14:30	61.5	61.5	61.5	65	49.6	0	2	112	0.00	30.252 
14:35	61.3	61.3	61.3	64	49.0	0	1	112	0.00	30.252 
14:40	61.3	61.3	61.3	65	49.4	0	1	112	0.00	30.252 
14:45	61.2	61.2	61.2	64	48.9	1	4	112	0.00	30.250 
14:50	61.0	61.0	61.0	65	49.1	0	1	112	0.00	30.249 
14:55	60.9	60.9	60.9	65	49.1	0	1	112	0.00	30.251 
15:00	60.9	60.9	60.9	65	49.1	0	3	112	0.00	30.255 
15:05	60.9	60.9	60.9	65	49.1	0	2	112	0.00	30.257 
15:10	61.0	61.0	61.0	65	49.1	0	2	112	0.00	30.254 
15:15	61.0	61.0	61.0	64	48.7	1	3	112	0.00	30.255 
15:20	61.3	61.3	61.3	65	49.4	1	3	112	0.00	30.257 
15:25	61.2	61.2	61.2	63	48.5	1	4	112	0.00	30.258 
15:30	60.9	60.9	60.9	64	48.6	1	3	90	0.00	30.261 
15:35	60.7	60.7	60.7	65	48.9	1	4	90	0.00	30.263 
15:40	60.4	60.4	60.4	65	48.6	0	1	90	0.00	30.265 
15:45	60.2	60.2	60.2	64	48.0	1	2	90	0.00	30.268 
15:50	59.9	59.9	59.9	65	48.1	1	3	90	0.00	30.268 
15:55	59.8	59.8	59.8	65	48.0	0	2	90	0.00	30.269 
16:00	59.6	59.6	59.6	64	47.4	1	3	90	0.00	30.269 
16:05	59.3	59.3	59.3	64	47.1	1	3	90	0.00	30.271 
16:10	59.2	59.2	59.2	63	46.6	1	4	112	0.00	30.272 
16:15	59.0	59.0	59.0	62	46.0	2	5	112	0.00	30.272 
16:20	58.9	58.9	58.9	63	46.3	1	5	112	0.00	30.274 
16:25	58.6	58.6	58.6	63	46.0	1	4	45	0.00	30.276 
16:30	58.3	58.3	58.3	63	45.8	1	3	90	0.00	30.280 
16:35	58.1	58.1	58.1	64	46.0	1	3	90	0.00	30.282 
16:40	58.0	58.0	58.0	65	46.3	0	2	90	0.00	30.282 
16:45	57.6	57.6	57.6	65	45.9	1	4	112	0.00	30.282 
16:50	57.3	57.3	57.3	65	45.6	1	3	112	0.00	30.284 
16:55	57.2	57.2	57.2	65	45.5	0	2	112	0.00	30.284 
17:00	57.0	57.0	57.0	67	46.2	0	2	112	0.00	30.283 
17:05	56.9	56.9	56.9	67	46.1	0	2	112	0.00	30.282 
17:10	56.6	56.6	56.6	66	45.4	0	2	90	0.00	30.281 
17:15	56.5	56.5	56.5	66	45.3	0	2	90	0.00	30.285 
17:20	56.3	56.3	56.3	65	44.7	0	2	90	0.00	30.285 
17:25	56.2	56.2	56.2	65	44.6	1	4	90	0.00	30.285 
17:30	56.0	56.0	56.0	65	44.4	0	1	90	0.00	30.287 
17:35	55.9	55.9	55.9	65	44.3	0	1	90	0.00	30.286 
17:40	55.7	55.7	55.7	65	44.1	0	1	90	0.00	30.285 
17:45	55.6	55.6	55.6	65	44.0	0	2	90	0.00	30.287 
17:50	55.4	55.4	55.4	66	44.2	0	0	---	0.00	30.291 
17:55	55.3	55.3	55.3	66	44.1	0	0	---	0.00	30.291 
18:00	55.1	55.1	55.1	67	44.3	0	2	90	0.00	30.291 
18:05	55.1	55.1	55.1	67	44.3	0	1	90	0.00	30.290 
18:10	55.0	55.0	55.0	66	43.9	0	3	90	0.00	30.292 
18:15	55.0	55.0	55.0	65	43.5	1	6	90	0.00	30.291 
18:20	54.8	54.8	54.8	64	42.9	2	5	90	0.00	30.292 
18:25	54.7	54.7	54.7	63	42.4	2	9	112	0.00	30.291 
18:30	54.5	54.5	54.5	64	42.6	1	6	112	0.00	30.297 
18:35	54.2	54.2	54.2	64	42.3	1	5	135	0.00	30.303 
18:40	54.1	54.1	54.1	65	42.6	1	3	135	0.00	30.304 
18:45	53.9	53.9	53.9	65	42.4	1	3	112	0.00	30.302 
18:50	53.8	53.8	53.8	65	42.3	1	5	90	0.00	30.301 
18:55	53.6	53.6	53.6	66	42.5	1	4	112	0.00	30.302 
19:00	53.5	53.5	53.5	66	42.4	1	3	112	0.00	30.303 
19:05	53.3	53.3	53.3	67	42.6	0	1	112	0.00	30.304 
19:10	53.3	53.3	53.3	67	42.6	1	5	90	0.00	30.303 
19:15	53.2	53.2	53.2	66	42.1	1	3	90	0.00	30.300 
19:20	53.2	53.2	53.2	66	42.1	1	4	112	0.00	30.300 
19:25	53.1	53.1	53.1	66	42.0	1	4	90	0.00	30.302 
19:30	52.9	52.9	52.9	66	41.9	0	1	112	0.00	30.304 
19:35	52.9	52.9	52.9	66	41.9	0	3	112	0.00	30.305 
19:40	52.9	52.9	52.9	66	41.9	1	3	112	0.00	30.305 
19:45	52.8	52.8	52.8	66	41.8	1	5	90	0.00	30.305 
19:50	52.8	52.8	52.8	67	42.1	1	2	112	0.00	30.305 
19:55	52.8	52.8	52.8	67	42.1	1	5	112	0.00	30.305 
20:00	52.8	52.8	52.8	66	41.8	1	3	90	0.00	30.300 
20:05	52.6	52.6	52.6	67	42.0	1	2	90	0.00	30.292 
20:10	52.6	52.6	52.6	67	42.0	1	3	90	0.00	30.293 
20:15	52.5	52.5	52.5	67	41.9	1	3	90	0.00	30.295 
20:20	52.3	52.3	52.3	68	42.1	0	2	90	0.00	30.296 
20:25	52.2	52.2	52.2	68	42.0	0	2	90	0.00	30.294 
20:30	52.0	52.0	52.0	69	42.1	1	3	90	0.00	30.294 
20:35	51.9	51.9	51.9	69	42.1	0	1	90	0.00	30.295 
20:40	51.7	51.7	51.7	69	41.9	0	1	90	0.00	30.297 
20:45	51.6	51.6	51.6	70	42.1	0	1	90	0.00	30.297 
20:50	51.3	51.3	51.3	70	41.9	0	0	---	0.00	30.300 
20:55	51.1	51.1	51.1	71	42.0	0	1	90	0.00	30.299 
21:00	51.0	51.0	51.0	71	41.9	0	1	90	0.00	30.299 
21:05	50.8	50.8	50.8	72	42.1	0	1	90	0.00	30.294 
21:10	50.5	50.5	50.5	73	42.2	0	1	90	0.00	30.293 
21:15	50.4	50.4	50.4	73	42.1	0	2	90	0.00	30.295 
21:20	50.4	50.4	50.4	72	41.7	1	3	90	0.00	30.297 
21:25	50.4	50.4	50.4	71	41.4	2	6	90	0.00	30.297 
21:30	50.5	50.5	50.5	71	41.5	1	4	90	0.00	30.297 
21:35	50.4	50.4	50.4	72	41.7	0	2	90	0.00	30.297 
21:40	50.2	50.2	50.2	72	41.5	1	3	90	0.00	30.297 
21:45	50.2	50.2	50.2	72	41.5	0	2	90	0.00	30.298 
21:50	50.1	50.1	50.1	73	41.8	1	3	90	0.00	30.299 
21:55	50.1	50.1	50.1	73	41.8	1	3	90	0.00	30.298 
22:00	50.2	50.2	50.2	73	41.9	1	4	90	0.00	30.298 
22:05	50.2	50.2	50.2	73	41.9	1	4	90	0.00	30.296 
22:10	50.4	50.4	50.4	73	42.1	1	2	112	0.00	30.299 
22:15	50.5	50.5	50.5	73	42.2	1	4	90	0.00	30.299 
22:20	50.7	50.7	50.7	72	42.0	2	5	90	0.00	30.299 
22:25	50.8	50.8	50.8	72	42.1	3	8	90	0.00	30.299 
22:30	51.0	51.0	51.0	72	42.3	2	5	90	0.00	30.300 
22:35	51.0	51.0	51.0	72	42.3	2	6	90	0.00	30.301 
22:40	51.0	51.0	51.0	72	42.3	3	7	90	0.00	30.302 
22:45	51.0	51.0	51.0	71	41.9	3	10	90	0.00	30.305 
22:50	51.0	51.0	51.0	71	41.9	2	6	90	0.00	30.305 
22:55	51.0	51.0	51.0	71	41.9	3	6	90	0.00	30.305 
23:00	51.0	51.0	51.0	71	41.9	3	7	112	0.00	30.305 
23:05	50.8	50.8	50.8	72	42.1	2	4	112	0.00	30.302 
23:10	50.8	50.8	50.8	72	42.1	3	7	90	0.00	30.298 
23:15	50.7	50.7	50.7	72	42.0	2	6	90	0.00	30.300 
23:20	50.7	50.7	50.7	72	42.0	2	6	90	0.00	30.300 
23:25	50.5	50.5	50.5	73	42.2	2	4	90	0.00	30.304 
23:30	50.5	50.5	50.5	73	42.2	2	5	112	0.00	30.304 
23:35	50.4	50.4	50.4	73	42.1	2	5	90	0.00	30.307 
23:40	50.2	50.2	50.2	74	42.2	3	6	68	0.00	30.308 
23:45	50.1	50.1	50.1	74	42.1	2	5	90	0.00	30.307 
23:50	49.9	49.9	49.9	75	42.3	3	10	90	0.00	30.310 
23:55	49.8	49.8	49.8	76	42.5	2	5	90	0.00	30.312 

CoCoRaHS
IN-AL-39
A2 Web Hosting
Creative Commons License
GoDaddy
Look for:

loaded 2017-10-16 20:14:42 • last modified 2010-11-18 10:43:29
Privacy PolicyDisclaimer
• wx.awcolley.com is powered by PmWiki v.2002016 •
• all content (unless otherwise noted) © 2017 A W Colley